sensor_id;sensor_type;location;lat;lon;timestamp;pressure;altitude;pressure_sealevel;temperature;humidity
49063;BME280;34876;51.464;-0.150;2023-03-14T00:01:55;98599.58;;;18.10;44.03
49063;BME280;34876;51.464;-0.150;2023-03-14T00:04:24;98603.75;;;18.10;44.00
49063;BME280;34876;51.464;-0.150;2023-03-14T00:06:54;98601.60;;;17.77;47.41
49063;BME280;34876;51.464;-0.150;2023-03-14T00:09:24;98600.38;;;18.13;44.01
49063;BME280;34876;51.464;-0.150;2023-03-14T00:11:53;98603.82;;;17.95;44.86
49063;BME280;34876;51.464;-0.150;2023-03-14T00:14:23;98608.71;;;18.25;43.64
49063;BME280;34876;51.464;-0.150;2023-03-14T00:16:55;98605.89;;;18.16;43.89
49063;BME280;34876;51.464;-0.150;2023-03-14T00:19:23;98609.46;;;18.29;43.54
49063;BME280;34876;51.464;-0.150;2023-03-14T00:21:53;98604.71;;;18.18;43.99
49063;BME280;34876;51.464;-0.150;2023-03-14T00:24:22;98614.55;;;18.16;46.37
49063;BME280;34876;51.464;-0.150;2023-03-14T00:26:52;98610.48;;;18.28;43.81
49063;BME280;34876;51.464;-0.150;2023-03-14T00:29:23;98610.36;;;17.87;46.06
49063;BME280;34876;51.464;-0.150;2023-03-14T00:31:57;98611.61;;;18.11;44.24
49063;BME280;34876;51.464;-0.150;2023-03-14T00:34:28;98611.99;;;18.28;43.83
49063;BME280;34876;51.464;-0.150;2023-03-14T00:36:58;98615.61;;;18.32;43.64
49063;BME280;34876;51.464;-0.150;2023-03-14T00:39:28;98618.91;;;18.30;43.72
49063;BME280;34876;51.464;-0.150;2023-03-14T00:41:58;98616.37;;;17.97;44.50
49063;BME280;34876;51.464;-0.150;2023-03-14T00:44:27;98619.75;;;18.25;43.84
49063;BME280;34876;51.464;-0.150;2023-03-14T00:46:57;98617.33;;;18.30;43.59
49063;BME280;34876;51.464;-0.150;2023-03-14T00:49:28;98621.79;;;18.10;44.41
49063;BME280;34876;51.464;-0.150;2023-03-14T00:51:57;98630.39;;;18.29;43.55
49063;BME280;34876;51.464;-0.150;2023-03-14T00:54:27;98626.73;;;17.58;45.49
49063;BME280;34876;51.464;-0.150;2023-03-14T00:56:57;98633.45;;;17.87;47.98
49063;BME280;34876;51.464;-0.150;2023-03-14T00:59:29;98635.15;;;18.27;43.80
49063;BME280;34876;51.464;-0.150;2023-03-14T01:03:16;98630.64;;;18.16;44.07
49063;BME280;34876;51.464;-0.150;2023-03-14T01:05:45;98632.95;;;18.22;43.88
49063;BME280;34876;51.464;-0.150;2023-03-14T01:08:31;98637.03;;;18.28;43.82
49063;BME280;34876;51.464;-0.150;2023-03-14T01:10:59;98681.99;;;18.30;44.00
49063;BME280;34876;51.464;-0.150;2023-03-14T01:13:37;98734.76;;;17.42;48.25
49063;BME280;34876;51.464;-0.150;2023-03-14T01:16:09;98758.09;;;15.94;50.18
49063;BME280;34876;51.464;-0.150;2023-03-14T01:18:39;98770.73;;;17.16;46.87
49063;BME280;34876;51.464;-0.150;2023-03-14T01:21:11;98789.28;;;16.32;48.72
49063;BME280;34876;51.464;-0.150;2023-03-14T01:23:43;98800.09;;;15.64;50.32
49063;BME280;34876;51.464;-0.150;2023-03-14T01:26:14;98807.93;;;15.84;50.04
49063;BME280;34876;51.464;-0.150;2023-03-14T01:28:44;98819.44;;;16.32;48.77
49063;BME280;34876;51.464;-0.150;2023-03-14T01:31:13;98826.00;;;15.90;49.21
49063;BME280;34876;51.464;-0.150;2023-03-14T01:33:45;98836.68;;;15.33;49.50
49063;BME280;34876;51.464;-0.150;2023-03-14T01:36:18;98853.36;;;14.62;53.30
49063;BME280;34876;51.464;-0.150;2023-03-14T01:38:47;98854.46;;;15.12;51.33
49063;BME280;34876;51.464;-0.150;2023-03-14T01:41:19;98873.17;;;15.19;48.73
49063;BME280;34876;51.464;-0.150;2023-03-14T01:43:48;98889.07;;;14.54;49.75
49063;BME280;34876;51.464;-0.150;2023-03-14T01:46:23;98897.17;;;15.91;48.21
49063;BME280;34876;51.464;-0.150;2023-03-14T01:49:03;98901.49;;;16.68;47.14
49063;BME280;34876;51.464;-0.150;2023-03-14T01:51:39;98908.30;;;16.34;45.61
49063;BME280;34876;51.464;-0.150;2023-03-14T01:54:16;98920.06;;;16.30;45.15
49063;BME280;34876;51.464;-0.150;2023-03-14T01:56:51;98915.27;;;17.08;46.06
49063;BME280;34876;51.464;-0.150;2023-03-14T01:59:24;98922.96;;;17.25;45.50
49063;BME280;34876;51.464;-0.150;2023-03-14T02:01:55;98933.61;;;17.07;45.86
49063;BME280;34876;51.464;-0.150;2023-03-14T02:04:28;98941.91;;;17.35;44.91
49063;BME280;34876;51.464;-0.150;2023-03-14T02:07:07;98947.14;;;17.85;43.89
49063;BME280;34876;51.464;-0.150;2023-03-14T02:09:40;98956.45;;;16.66;44.31
49063;BME280;34876;51.464;-0.150;2023-03-14T02:12:12;98964.50;;;16.21;47.48
49063;BME280;34876;51.464;-0.150;2023-03-14T02:14:43;98967.31;;;16.37;47.43
49063;BME280;34876;51.464;-0.150;2023-03-14T02:17:14;98967.53;;;17.60;44.32
49063;BME280;34876;51.464;-0.150;2023-03-14T02:19:56;98970.58;;;17.68;44.17
49063;BME280;34876;51.464;-0.150;2023-03-14T02:22:27;98980.42;;;17.33;44.72
49063;BME280;34876;51.464;-0.150;2023-03-14T02:25:03;98984.75;;;17.93;43.55
49063;BME280;34876;51.464;-0.150;2023-03-14T02:27:41;98997.22;;;17.88;43.74
49063;BME280;34876;51.464;-0.150;2023-03-14T02:30:16;99007.43;;;18.03;42.90
49063;BME280;34876;51.464;-0.150;2023-03-14T02:32:48;99015.77;;;17.66;44.16
49063;BME280;34876;51.464;-0.150;2023-03-14T02:35:24;99023.81;;;17.93;43.68
49063;BME280;34876;51.464;-0.150;2023-03-14T02:37:56;99028.96;;;17.66;41.60
49063;BME280;34876;51.464;-0.150;2023-03-14T02:40:28;99052.31;;;16.40;45.83
49063;BME280;34876;51.464;-0.150;2023-03-14T02:43:03;99067.35;;;16.02;48.03
49063;BME280;34876;51.464;-0.150;2023-03-14T02:45:43;99080.41;;;15.55;48.15
49063;BME280;34876;51.464;-0.150;2023-03-14T02:48:21;99100.70;;;14.98;42.51
49063;BME280;34876;51.464;-0.150;2023-03-14T02:50:59;99094.35;;;16.60;45.92
49063;BME280;34876;51.464;-0.150;2023-03-14T02:53:32;99097.67;;;17.32;38.89
49063;BME280;34876;51.464;-0.150;2023-03-14T02:56:03;99098.28;;;17.32;44.52
49063;BME280;34876;51.464;-0.150;2023-03-14T02:58:31;99110.21;;;17.57;43.93
49063;BME280;34876;51.464;-0.150;2023-03-14T03:01:00;99108.39;;;17.46;43.99
49063;BME280;34876;51.464;-0.150;2023-03-14T03:03:31;99115.28;;;16.63;38.91
49063;BME280;34876;51.464;-0.150;2023-03-14T03:06:00;99124.06;;;17.39;43.88
49063;BME280;34876;51.464;-0.150;2023-03-14T03:08:29;99124.30;;;17.82;42.91
49063;BME280;34876;51.464;-0.150;2023-03-14T03:10:59;99126.71;;;17.46;43.51
49063;BME280;34876;51.464;-0.150;2023-03-14T03:13:27;99127.31;;;17.63;43.11
49063;BME280;34876;51.464;-0.150;2023-03-14T03:15:56;99136.72;;;17.85;42.73
49063;BME280;34876;51.464;-0.150;2023-03-14T03:18:31;99137.77;;;17.20;42.93
49063;BME280;34876;51.464;-0.150;2023-03-14T03:21:00;99138.09;;;17.79;42.78
49063;BME280;34876;51.464;-0.150;2023-03-14T03:23:29;99146.96;;;17.94;42.32
49063;BME280;34876;51.464;-0.150;2023-03-14T03:25:59;99157.03;;;17.89;42.34
49063;BME280;34876;51.464;-0.150;2023-03-14T03:28:28;99165.37;;;17.98;42.11
49063;BME280;34876;51.464;-0.150;2023-03-14T03:31:06;99171.43;;;17.69;42.74
49063;BME280;34876;51.464;-0.150;2023-03-14T03:33:36;99174.31;;;17.91;42.15
49063;BME280;34876;51.464;-0.150;2023-03-14T03:36:09;99180.01;;;17.87;42.18
49063;BME280;34876;51.464;-0.150;2023-03-14T03:38:40;99182.10;;;18.01;41.88
49063;BME280;34876;51.464;-0.150;2023-03-14T03:41:09;99191.13;;;17.91;42.12
49063;BME280;34876;51.464;-0.150;2023-03-14T03:43:38;99194.31;;;17.87;42.39
49063;BME280;34876;51.464;-0.150;2023-03-14T03:46:08;99198.83;;;17.98;42.01
49063;BME280;34876;51.464;-0.150;2023-03-14T03:48:42;99202.00;;;17.86;42.12
49063;BME280;34876;51.464;-0.150;2023-03-14T03:51:16;99210.49;;;17.95;42.00
49063;BME280;34876;51.464;-0.150;2023-03-14T03:53:56;99220.96;;;17.45;42.85
49063;BME280;34876;51.464;-0.150;2023-03-14T03:56:25;99225.76;;;17.75;42.23
49063;BME280;34876;51.464;-0.150;2023-03-14T03:59:00;99232.96;;;17.68;42.26
49063;BME280;34876;51.464;-0.150;2023-03-14T04:01:31;99251.08;;;16.01;45.76
49063;BME280;34876;51.464;-0.150;2023-03-14T04:04:01;99248.77;;;17.37;43.10
49063;BME280;34876;51.464;-0.150;2023-03-14T04:06:29;99258.05;;;17.11;43.33
49063;BME280;34876;51.464;-0.150;2023-03-14T04:09:00;99271.48;;;17.00;44.03
49063;BME280;34876;51.464;-0.150;2023-03-14T04:11:30;99272.79;;;17.35;43.32
49063;BME280;34876;51.464;-0.150;2023-03-14T04:14:00;99279.05;;;16.72;44.34
49063;BME280;34876;51.464;-0.150;2023-03-14T04:16:30;99284.52;;;17.44;42.97
49063;BME280;34876;51.464;-0.150;2023-03-14T04:19:01;99291.25;;;17.80;42.21
49063;BME280;34876;51.464;-0.150;2023-03-14T04:21:31;99311.76;;;17.43;42.65
49063;BME280;34876;51.464;-0.150;2023-03-14T04:24:00;99313.77;;;17.67;40.22
49063;BME280;34876;51.464;-0.150;2023-03-14T04:26:30;99315.38;;;17.78;41.70
49063;BME280;34876;51.464;-0.150;2023-03-14T04:28:59;99327.41;;;17.31;42.35
49063;BME280;34876;51.464;-0.150;2023-03-14T04:31:29;99335.34;;;17.73;41.79
49063;BME280;34876;51.464;-0.150;2023-03-14T04:34:01;99340.73;;;17.16;43.20
49063;BME280;34876;51.464;-0.150;2023-03-14T04:36:31;99356.64;;;16.61;37.69
49063;BME280;34876;51.464;-0.150;2023-03-14T04:39:00;99363.75;;;16.99;43.32
49063;BME280;34876;51.464;-0.150;2023-03-14T04:41:31;99366.52;;;16.95;42.15
49063;BME280;34876;51.464;-0.150;2023-03-14T04:44:00;99375.45;;;17.61;41.35
49063;BME280;34876;51.464;-0.150;2023-03-14T04:46:30;99377.97;;;17.79;41.71
49063;BME280;34876;51.464;-0.150;2023-03-14T04:49:00;99393.27;;;16.46;44.33
49063;BME280;34876;51.464;-0.150;2023-03-14T04:51:29;99395.44;;;17.53;40.78
49063;BME280;34876;51.464;-0.150;2023-03-14T04:53:58;99394.95;;;17.86;42.00
49063;BME280;34876;51.464;-0.150;2023-03-14T04:56:28;99404.27;;;17.79;41.65
49063;BME280;34876;51.464;-0.150;2023-03-14T04:58:57;99411.92;;;17.53;42.43
49063;BME280;34876;51.464;-0.150;2023-03-14T05:01:27;99418.68;;;17.41;42.40
49063;BME280;34876;51.464;-0.150;2023-03-14T05:03:56;99420.70;;;17.17;42.81
49063;BME280;34876;51.464;-0.150;2023-03-14T05:06:25;99429.42;;;17.55;42.04
49063;BME280;34876;51.464;-0.150;2023-03-14T05:08:54;99429.61;;;17.75;41.45
49063;BME280;34876;51.464;-0.150;2023-03-14T05:11:22;99433.14;;;16.93;34.98
49063;BME280;34876;51.464;-0.150;2023-03-14T05:13:52;99435.86;;;17.52;42.20
49063;BME280;34876;51.464;-0.150;2023-03-14T05:16:22;99434.09;;;17.86;41.36
49063;BME280;34876;51.464;-0.150;2023-03-14T05:18:58;99432.61;;;17.84;41.45
49063;BME280;34876;51.464;-0.150;2023-03-14T05:21:28;99443.47;;;17.74;39.25
49063;BME280;34876;51.464;-0.150;2023-03-14T05:23:57;99458.41;;;17.87;41.31
49063;BME280;34876;51.464;-0.150;2023-03-14T05:26:26;99465.22;;;17.17;42.56
49063;BME280;34876;51.464;-0.150;2023-03-14T05:28:55;99469.58;;;17.82;40.25
49063;BME280;34876;51.464;-0.150;2023-03-14T05:31:24;99478.42;;;17.85;41.15
49063;BME280;34876;51.464;-0.150;2023-03-14T05:33:53;99483.73;;;17.91;40.90
49063;BME280;34876;51.464;-0.150;2023-03-14T05:36:23;99484.07;;;17.63;41.51
49063;BME280;34876;51.464;-0.150;2023-03-14T05:38:52;99491.44;;;17.87;40.82
49063;BME280;34876;51.464;-0.150;2023-03-14T05:41:21;99491.92;;;17.92;41.09
49063;BME280;34876;51.464;-0.150;2023-03-14T05:43:51;99495.47;;;17.98;40.81
49063;BME280;34876;51.464;-0.150;2023-03-14T05:46:19;99505.30;;;17.51;35.38
49063;BME280;34876;51.464;-0.150;2023-03-14T05:48:48;99508.03;;;17.83;40.87
49063;BME280;34876;51.464;-0.150;2023-03-14T05:51:17;99520.46;;;17.21;32.66
49063;BME280;34876;51.464;-0.150;2023-03-14T05:53:47;99523.27;;;17.80;40.81
49063;BME280;34876;51.464;-0.150;2023-03-14T05:56:15;99527.81;;;17.78;40.47
49063;BME280;34876;51.464;-0.150;2023-03-14T05:58:45;99532.24;;;17.88;40.55
49063;BME280;34876;51.464;-0.150;2023-03-14T06:01:15;99535.55;;;17.91;40.65
49063;BME280;34876;51.464;-0.150;2023-03-14T06:03:45;99546.19;;;17.91;40.64
49063;BME280;34876;51.464;-0.150;2023-03-14T06:06:15;99552.51;;;17.97;40.67
49063;BME280;34876;51.464;-0.150;2023-03-14T06:08:45;99558.31;;;17.63;40.85
49063;BME280;34876;51.464;-0.150;2023-03-14T06:11:14;99551.07;;;17.93;40.61
49063;BME280;34876;51.464;-0.150;2023-03-14T06:13:50;99557.97;;;17.95;40.64
49063;BME280;34876;51.464;-0.150;2023-03-14T06:16:19;99570.38;;;17.68;40.91
49063;BME280;34876;51.464;-0.150;2023-03-14T06:18:48;99569.64;;;17.89;40.62
49063;BME280;34876;51.464;-0.150;2023-03-14T06:21:18;99584.03;;;17.89;40.68
49063;BME280;34876;51.464;-0.150;2023-03-14T06:23:47;99593.29;;;17.35;42.05
49063;BME280;34876;51.464;-0.150;2023-03-14T06:26:16;99589.42;;;17.97;40.89
49063;BME280;34876;51.464;-0.150;2023-03-14T06:28:45;99597.56;;;17.73;41.31
49063;BME280;34876;51.464;-0.150;2023-03-14T06:31:20;99606.09;;;17.82;40.69
49063;BME280;34876;51.464;-0.150;2023-03-14T06:33:48;99611.17;;;17.76;40.70
49063;BME280;34876;51.464;-0.150;2023-03-14T06:36:17;99617.31;;;17.71;41.40
49063;BME280;34876;51.464;-0.150;2023-03-14T06:38:47;99621.92;;;17.97;41.22
49063;BME280;34876;51.464;-0.150;2023-03-14T06:41:17;99631.92;;;17.98;41.01
49063;BME280;34876;51.464;-0.150;2023-03-14T06:43:46;99638.03;;;17.86;40.82
49063;BME280;34876;51.464;-0.150;2023-03-14T06:46:15;99644.30;;;17.61;41.14
49063;BME280;34876;51.464;-0.150;2023-03-14T06:48:44;99649.99;;;17.52;41.50
49063;BME280;34876;51.464;-0.150;2023-03-14T06:51:12;99655.10;;;17.91;40.37
49063;BME280;34876;51.464;-0.150;2023-03-14T06:53:43;99663.36;;;17.63;40.82
49063;BME280;34876;51.464;-0.150;2023-03-14T06:56:12;99675.56;;;17.81;40.93
49063;BME280;34876;51.464;-0.150;2023-03-14T06:58:41;99678.82;;;16.93;41.99
49063;BME280;34876;51.464;-0.150;2023-03-14T07:01:20;99687.40;;;17.84;40.76
49063;BME280;34876;51.464;-0.150;2023-03-14T07:03:49;99696.89;;;17.93;40.21
49063;BME280;34876;51.464;-0.150;2023-03-14T07:06:18;99704.58;;;17.68;41.30
49063;BME280;34876;51.464;-0.150;2023-03-14T07:08:47;99706.79;;;17.14;41.87
49063;BME280;34876;51.464;-0.150;2023-03-14T07:11:16;99716.65;;;17.84;40.88
49063;BME280;34876;51.464;-0.150;2023-03-14T07:13:45;99720.99;;;17.49;40.72
49063;BME280;34876;51.464;-0.150;2023-03-14T07:16:14;99726.76;;;17.75;40.37
49063;BME280;34876;51.464;-0.150;2023-03-14T07:18:44;99734.75;;;17.93;40.20
49063;BME280;34876;51.464;-0.150;2023-03-14T07:21:13;99746.52;;;17.93;40.05
49063;BME280;34876;51.464;-0.150;2023-03-14T07:23:42;99758.10;;;16.83;40.49
49063;BME280;34876;51.464;-0.150;2023-03-14T07:26:11;99758.70;;;17.72;40.32
49063;BME280;34876;51.464;-0.150;2023-03-14T07:28:40;99776.89;;;16.20;41.05
49063;BME280;34876;51.464;-0.150;2023-03-14T07:31:09;99788.92;;;16.69;41.85
49063;BME280;34876;51.464;-0.150;2023-03-14T07:33:38;99801.06;;;16.60;34.63
49063;BME280;34876;51.464;-0.150;2023-03-14T07:36:08;99803.90;;;17.34;40.67
49063;BME280;34876;51.464;-0.150;2023-03-14T07:38:39;99817.49;;;17.40;40.79
49063;BME280;34876;51.464;-0.150;2023-03-14T07:41:08;99832.93;;;16.30;39.74
49063;BME280;34876;51.464;-0.150;2023-03-14T07:43:39;99841.54;;;16.10;43.22
49063;BME280;34876;51.464;-0.150;2023-03-14T07:46:08;99854.50;;;16.75;41.64
49063;BME280;34876;51.464;-0.150;2023-03-14T07:48:37;99864.21;;;17.29;40.89
49063;BME280;34876;51.464;-0.150;2023-03-14T07:51:07;99873.04;;;16.95;39.51
49063;BME280;34876;51.464;-0.150;2023-03-14T07:53:36;99880.63;;;17.25;41.21
49063;BME280;34876;51.464;-0.150;2023-03-14T07:56:06;99892.74;;;17.70;39.83
49063;BME280;34876;51.464;-0.150;2023-03-14T07:58:35;99904.40;;;17.49;40.29
49063;BME280;34876;51.464;-0.150;2023-03-14T08:01:04;99914.89;;;15.99;39.11
49063;BME280;34876;51.464;-0.150;2023-03-14T08:03:34;99932.68;;;15.45;38.46
49063;BME280;34876;51.464;-0.150;2023-03-14T08:06:09;99937.94;;;16.60;42.04
49063;BME280;34876;51.464;-0.150;2023-03-14T08:08:39;99953.78;;;15.35;42.61
49063;BME280;34876;51.464;-0.150;2023-03-14T08:11:08;99968.66;;;14.13;41.90
49063;BME280;34876;51.464;-0.150;2023-03-14T08:13:38;99974.33;;;16.33;42.95
49063;BME280;34876;51.464;-0.150;2023-03-14T08:16:08;99979.89;;;17.23;40.75
49063;BME280;34876;51.464;-0.150;2023-03-14T08:18:37;99985.65;;;17.50;40.07
49063;BME280;34876;51.464;-0.150;2023-03-14T08:21:07;99996.51;;;16.44;42.52
49063;BME280;34876;51.464;-0.150;2023-03-14T08:23:35;100003.52;;;17.46;40.31
49063;BME280;34876;51.464;-0.150;2023-03-14T08:26:06;100011.57;;;17.60;39.78
49063;BME280;34876;51.464;-0.150;2023-03-14T08:28:36;100024.30;;;17.47;40.04
49063;BME280;34876;51.464;-0.150;2023-03-14T08:31:07;100031.53;;;17.48;40.04
49063;BME280;34876;51.464;-0.150;2023-03-14T08:33:35;100040.21;;;17.68;39.50
49063;BME280;34876;51.464;-0.150;2023-03-14T08:36:06;100050.41;;;17.74;39.43
49063;BME280;34876;51.464;-0.150;2023-03-14T08:38:35;100063.74;;;17.01;39.48
49063;BME280;34876;51.464;-0.150;2023-03-14T08:41:05;100065.98;;;17.67;39.64
49063;BME280;34876;51.464;-0.150;2023-03-14T08:43:34;100081.92;;;15.79;38.53
49063;BME280;34876;51.464;-0.150;2023-03-14T08:46:04;100090.60;;;17.31;39.81
49063;BME280;34876;51.464;-0.150;2023-03-14T08:48:33;100097.91;;;17.62;39.60
49063;BME280;34876;51.464;-0.150;2023-03-14T08:51:07;100119.25;;;16.11;42.46
49063;BME280;34876;51.464;-0.150;2023-03-14T08:53:38;100122.04;;;17.29;40.41
49063;BME280;34876;51.464;-0.150;2023-03-14T08:56:08;100136.24;;;17.06;40.36
49063;BME280;34876;51.464;-0.150;2023-03-14T08:58:37;100140.88;;;17.50;39.83
49063;BME280;34876;51.464;-0.150;2023-03-14T09:01:08;100159.21;;;17.04;40.76
49063;BME280;34876;51.464;-0.150;2023-03-14T09:03:44;100162.31;;;17.54;39.68
49063;BME280;34876;51.464;-0.150;2023-03-14T09:06:13;100170.30;;;16.28;41.27
49063;BME280;34876;51.464;-0.150;2023-03-14T09:08:42;100178.40;;;16.11;38.48
49063;BME280;34876;51.464;-0.150;2023-03-14T09:11:12;100187.54;;;16.75;38.81
49063;BME280;34876;51.464;-0.150;2023-03-14T09:13:42;100201.47;;;17.23;40.24
49063;BME280;34876;51.464;-0.150;2023-03-14T09:16:10;100209.06;;;17.47;39.36
49063;BME280;34876;51.464;-0.150;2023-03-14T09:18:40;100222.42;;;17.00;39.49
49063;BME280;34876;51.464;-0.150;2023-03-14T09:21:09;100233.21;;;16.75;39.99
49063;BME280;34876;51.464;-0.150;2023-03-14T09:23:39;100249.09;;;16.40;37.84
49063;BME280;34876;51.464;-0.150;2023-03-14T09:26:08;100256.56;;;16.81;38.49
49063;BME280;34876;51.464;-0.150;2023-03-14T09:28:36;100264.87;;;17.50;39.65
49063;BME280;34876;51.464;-0.150;2023-03-14T09:31:07;100280.61;;;16.15;42.50
49063;BME280;34876;51.464;-0.150;2023-03-14T09:33:37;100291.54;;;16.58;40.29
49063;BME280;34876;51.464;-0.150;2023-03-14T09:36:08;100308.49;;;15.33;39.66
49063;BME280;34876;51.464;-0.150;2023-03-14T09:38:38;100316.22;;;14.98;45.28
49063;BME280;34876;51.464;-0.150;2023-03-14T09:41:15;100309.53;;;16.91;39.52
49063;BME280;34876;51.464;-0.150;2023-03-14T09:43:45;100319.58;;;17.08;40.31
49063;BME280;34876;51.464;-0.150;2023-03-14T09:46:15;100326.97;;;17.49;39.42
49063;BME280;34876;51.464;-0.150;2023-03-14T09:48:45;100335.25;;;17.43;39.25
49063;BME280;34876;51.464;-0.150;2023-03-14T09:51:16;100341.23;;;17.43;39.36
49063;BME280;34876;51.464;-0.150;2023-03-14T09:53:48;100350.69;;;17.63;39.01
49063;BME280;34876;51.464;-0.150;2023-03-14T09:56:20;100357.37;;;17.51;39.02
49063;BME280;34876;51.464;-0.150;2023-03-14T09:58:53;100373.47;;;16.55;39.78
49063;BME280;34876;51.464;-0.150;2023-03-14T10:01:27;100378.16;;;16.95;40.29
49063;BME280;34876;51.464;-0.150;2023-03-14T10:03:59;100385.50;;;16.71;39.94
49063;BME280;34876;51.464;-0.150;2023-03-14T10:06:31;100397.65;;;15.38;43.21
49063;BME280;34876;51.464;-0.150;2023-03-14T10:09:01;100399.96;;;15.57;42.50
49063;BME280;34876;51.464;-0.150;2023-03-14T10:11:31;100403.85;;;16.55;41.11
49063;BME280;34876;51.464;-0.150;2023-03-14T10:14:05;100411.12;;;16.81;40.33
49063;BME280;34876;51.464;-0.150;2023-03-14T10:16:37;100414.47;;;15.66;41.92
49063;BME280;34876;51.464;-0.150;2023-03-14T10:19:09;100426.40;;;16.07;42.05
49063;BME280;34876;51.464;-0.150;2023-03-14T10:21:40;100422.21;;;17.06;39.80
49063;BME280;34876;51.464;-0.150;2023-03-14T10:24:19;100417.54;;;17.51;38.92
49063;BME280;34876;51.464;-0.150;2023-03-14T10:26:49;100428.54;;;17.67;38.62
49063;BME280;34876;51.464;-0.150;2023-03-14T10:29:20;100437.07;;;17.69;37.41
49063;BME280;34876;51.464;-0.150;2023-03-14T10:31:52;100441.27;;;17.82;38.16
49063;BME280;34876;51.464;-0.150;2023-03-14T10:34:25;100446.28;;;17.67;38.46
49063;BME280;34876;51.464;-0.150;2023-03-14T10:36:57;100464.64;;;17.68;38.25
49063;BME280;34876;51.464;-0.150;2023-03-14T10:39:33;100471.10;;;16.56;35.09
49063;BME280;34876;51.464;-0.150;2023-03-14T10:42:11;100474.61;;;17.66;38.35
49063;BME280;34876;51.464;-0.150;2023-03-14T10:44:43;100473.80;;;17.86;38.01
49063;BME280;34876;51.464;-0.150;2023-03-14T10:47:17;100481.52;;;17.95;37.76
49063;BME280;34876;51.464;-0.150;2023-03-14T10:49:47;100484.87;;;17.89;37.78
49063;BME280;34876;51.464;-0.150;2023-03-14T10:52:21;100488.38;;;17.88;37.93
49063;BME280;34876;51.464;-0.150;2023-03-14T10:54:56;100492.89;;;17.96;37.72
49063;BME280;34876;51.464;-0.150;2023-03-14T10:57:26;100500.91;;;18.02;37.52
49063;BME280;34876;51.464;-0.150;2023-03-14T10:59:56;100510.54;;;18.08;37.47
49063;BME280;34876;51.464;-0.150;2023-03-14T11:02:39;100517.71;;;18.13;37.39
49063;BME280;34876;51.464;-0.150;2023-03-14T11:05:25;100523.11;;;18.15;37.33
49063;BME280;34876;51.464;-0.150;2023-03-14T11:07:58;100531.47;;;18.05;37.46
49063;BME280;34876;51.464;-0.150;2023-03-14T11:10:32;100539.04;;;18.17;37.27
49063;BME280;34876;51.464;-0.150;2023-03-14T11:13:12;100544.66;;;17.92;37.64
49063;BME280;34876;51.464;-0.150;2023-03-14T11:15:53;100559.28;;;17.46;35.96
49063;BME280;34876;51.464;-0.150;2023-03-14T11:18:39;100563.45;;;17.82;37.89
49063;BME280;34876;51.464;-0.150;2023-03-14T11:21:20;100569.62;;;17.70;37.96
49063;BME280;34876;51.464;-0.150;2023-03-14T11:24:09;100576.68;;;17.67;38.05
49063;BME280;34876;51.464;-0.150;2023-03-14T11:26:46;100583.00;;;17.17;38.55
49063;BME280;34876;51.464;-0.150;2023-03-14T11:29:22;100583.77;;;17.63;37.97
49063;BME280;34876;51.464;-0.150;2023-03-14T11:31:55;100589.88;;;17.73;37.65
49063;BME280;34876;51.464;-0.150;2023-03-14T11:34:29;100599.00;;;17.05;38.14
49063;BME280;34876;51.464;-0.150;2023-03-14T11:37:06;100592.21;;;17.75;37.76
49063;BME280;34876;51.464;-0.150;2023-03-14T11:39:45;100595.26;;;17.94;36.51
49063;BME280;34876;51.464;-0.150;2023-03-14T11:42:17;100595.08;;;18.11;37.09
49063;BME280;34876;51.464;-0.150;2023-03-14T11:44:48;100597.53;;;18.09;37.16
49063;BME280;34876;51.464;-0.150;2023-03-14T11:47:19;100602.44;;;18.12;37.05
49063;BME280;34876;51.464;-0.150;2023-03-14T11:49:53;100612.79;;;17.92;37.47
49063;BME280;34876;51.464;-0.150;2023-03-14T11:52:34;100616.29;;;17.96;37.36
49063;BME280;34876;51.464;-0.150;2023-03-14T11:55:09;100619.02;;;18.12;37.10
49063;BME280;34876;51.464;-0.150;2023-03-14T11:57:40;100631.90;;;17.44;38.28
49063;BME280;34876;51.464;-0.150;2023-03-14T12:00:16;100632.29;;;18.03;37.26
49063;BME280;34876;51.464;-0.150;2023-03-14T12:02:56;100634.47;;;18.08;37.14
49063;BME280;34876;51.464;-0.150;2023-03-14T12:05:37;100640.88;;;18.08;37.15
49063;BME280;34876;51.464;-0.150;2023-03-14T12:08:37;100646.93;;;17.51;37.47
49063;BME280;34876;51.464;-0.150;2023-03-14T12:11:18;100648.35;;;17.45;37.50
49063;BME280;34876;51.464;-0.150;2023-03-14T12:13:50;100648.38;;;17.85;37.02
49063;BME280;34876;51.464;-0.150;2023-03-14T12:16:31;100653.45;;;17.48;33.25
49063;BME280;34876;51.464;-0.150;2023-03-14T12:19:36;100658.99;;;17.20;38.11
49063;BME280;34876;51.464;-0.150;2023-03-14T12:22:13;100658.11;;;17.74;37.80
49063;BME280;34876;51.464;-0.150;2023-03-14T12:24:56;100662.28;;;18.00;37.27
49063;BME280;34876;51.464;-0.150;2023-03-14T12:28:12;100665.43;;;17.66;37.16
49063;BME280;34876;51.464;-0.150;2023-03-14T12:30:45;100667.69;;;17.82;37.54
49063;BME280;34876;51.464;-0.150;2023-03-14T12:33:27;100675.25;;;17.17;32.41
49063;BME280;34876;51.464;-0.150;2023-03-14T12:36:00;100680.01;;;16.78;39.27
49063;BME280;34876;51.464;-0.150;2023-03-14T12:39:00;100680.52;;;17.49;38.19
49063;BME280;34876;51.464;-0.150;2023-03-14T12:41:39;100686.28;;;16.79;39.00
49063;BME280;34876;51.464;-0.150;2023-03-14T12:44:46;100686.16;;;16.66;39.30
49063;BME280;34876;51.464;-0.150;2023-03-14T12:48:41;100689.96;;;17.59;37.77
49063;BME280;34876;51.464;-0.150;2023-03-14T12:51:13;100689.33;;;17.47;37.92
49063;BME280;34876;51.464;-0.150;2023-03-14T12:53:58;100695.50;;;17.82;37.20
49063;BME280;34876;51.464;-0.150;2023-03-14T12:56:52;100694.34;;;17.83;37.16
49063;BME280;34876;51.464;-0.150;2023-03-14T12:59:31;100693.34;;;17.45;37.92
49063;BME280;34876;51.464;-0.150;2023-03-14T13:02:17;100694.07;;;17.51;37.73
49063;BME280;34876;51.464;-0.150;2023-03-14T13:04:51;100697.05;;;17.64;37.21
49063;BME280;34876;51.464;-0.150;2023-03-14T13:08:05;100704.50;;;17.44;32.96
49063;BME280;34876;51.464;-0.150;2023-03-14T13:10:42;100705.31;;;17.68;37.19
49063;BME280;34876;51.464;-0.150;2023-03-14T13:13:19;100705.88;;;17.28;38.03
49063;BME280;34876;51.464;-0.150;2023-03-14T13:15:54;100704.10;;;17.84;36.91